sensor_id;sensor_type;location;lat;lon;timestamp;P1;durP1;ratioP1;P2;durP2;ratioP2
56102;SDS011;41970;48.774;9.280;2022-11-20T00:01:06;4.90;;;4.40;;
56102;SDS011;41970;48.774;9.280;2022-11-20T00:03:34;6.03;;;5.43;;
56102;SDS011;41970;48.774;9.280;2022-11-20T00:06:01;6.20;;;5.30;;
56102;SDS011;41970;48.774;9.280;2022-11-20T00:08:32;6.90;;;5.37;;
56102;SDS011;41970;48.774;9.280;2022-11-20T00:11:08;5.33;;;4.83;;
56102;SDS011;41970;48.774;9.280;2022-11-20T00:13:45;6.27;;;5.07;;
56102;SDS011;41970;48.774;9.280;2022-11-20T00:16:12;7.20;;;5.20;;
56102;SDS011;41970;48.774;9.280;2022-11-20T00:18:40;6.27;;;5.30;;
56102;SDS011;41970;48.774;9.280;2022-11-20T00:21:11;5.40;;;4.90;;
56102;SDS011;41970;48.774;9.280;2022-11-20T00:23:39;6.17;;;5.57;;
56102;SDS011;41970;48.774;9.280;2022-11-20T00:26:07;5.73;;;4.90;;
56102;SDS011;41970;48.774;9.280;2022-11-20T00:28:38;5.13;;;4.30;;
56102;SDS011;41970;48.774;9.280;2022-11-20T00:31:05;6.60;;;5.10;;
56102;SDS011;41970;48.774;9.280;2022-11-20T00:33:36;7.07;;;4.40;;
56102;SDS011;41970;48.774;9.280;2022-11-20T00:36:03;4.37;;;3.97;;
56102;SDS011;41970;48.774;9.280;2022-11-20T00:38:34;4.70;;;4.30;;
56102;SDS011;41970;48.774;9.280;2022-11-20T00:41:01;9.13;;;4.50;;
56102;SDS011;41970;48.774;9.280;2022-11-20T00:43:29;5.63;;;4.30;;
56102;SDS011;41970;48.774;9.280;2022-11-20T00:46:02;6.33;;;4.63;;
56102;SDS011;41970;48.774;9.280;2022-11-20T00:48:30;5.20;;;4.33;;
56102;SDS011;41970;48.774;9.280;2022-11-20T00:50:56;4.00;;;3.67;;
56102;SDS011;41970;48.774;9.280;2022-11-20T00:53:22;4.93;;;4.13;;
56102;SDS011;41970;48.774;9.280;2022-11-20T00:55:52;5.23;;;4.70;;
56102;SDS011;41970;48.774;9.280;2022-11-20T00:58:23;5.53;;;5.03;;
56102;SDS011;41970;48.774;9.280;2022-11-20T01:00:50;4.70;;;4.17;;
56102;SDS011;41970;48.774;9.280;2022-11-20T01:03:17;4.40;;;4.00;;
56102;SDS011;41970;48.774;9.280;2022-11-20T01:05:43;4.90;;;4.40;;
56102;SDS011;41970;48.774;9.280;2022-11-20T01:08:09;5.03;;;4.30;;
56102;SDS011;41970;48.774;9.280;2022-11-20T01:10:36;6.67;;;4.57;;
56102;SDS011;41970;48.774;9.280;2022-11-20T01:13:02;5.00;;;4.37;;
56102;SDS011;41970;48.774;9.280;2022-11-20T01:15:46;3.80;;;3.50;;
56102;SDS011;41970;48.774;9.280;2022-11-20T01:18:12;4.37;;;3.97;;
56102;SDS011;41970;48.774;9.280;2022-11-20T01:20:38;4.67;;;4.27;;
56102;SDS011;41970;48.774;9.280;2022-11-20T01:23:03;5.23;;;3.90;;
56102;SDS011;41970;48.774;9.280;2022-11-20T01:25:29;4.70;;;3.80;;
56102;SDS011;41970;48.774;9.280;2022-11-20T01:27:55;4.00;;;3.60;;
56102;SDS011;41970;48.774;9.280;2022-11-20T01:30:21;3.50;;;3.20;;
56102;SDS011;41970;48.774;9.280;2022-11-20T01:32:47;4.27;;;3.93;;
56102;SDS011;41970;48.774;9.280;2022-11-20T01:35:13;3.57;;;3.23;;
56102;SDS011;41970;48.774;9.280;2022-11-20T01:37:39;4.27;;;3.93;;
56102;SDS011;41970;48.774;9.280;2022-11-20T01:40:05;4.37;;;3.50;;
56102;SDS011;41970;48.774;9.280;2022-11-20T01:42:31;4.57;;;4.17;;
56102;SDS011;41970;48.774;9.280;2022-11-20T01:48:12;4.00;;;3.57;;
56102;SDS011;41970;48.774;9.280;2022-11-20T01:50:38;4.80;;;3.53;;
56102;SDS011;41970;48.774;9.280;2022-11-20T01:53:08;5.03;;;3.17;;
56102;SDS011;41970;48.774;9.280;2022-11-20T01:55:41;3.97;;;3.60;;
56102;SDS011;41970;48.774;9.280;2022-11-20T01:58:12;4.07;;;3.30;;
56102;SDS011;41970;48.774;9.280;2022-11-20T02:00:39;4.40;;;3.53;;
56102;SDS011;41970;48.774;9.280;2022-11-20T02:03:07;3.97;;;3.60;;
56102;SDS011;41970;48.774;9.280;2022-11-20T02:05:36;5.17;;;3.70;;
56102;SDS011;41970;48.774;9.280;2022-11-20T02:08:11;3.13;;;2.87;;
56102;SDS011;41970;48.774;9.280;2022-11-20T02:10:38;3.73;;;3.30;;
56102;SDS011;41970;48.774;9.280;2022-11-20T02:13:04;4.40;;;3.23;;
56102;SDS011;41970;48.774;9.280;2022-11-20T02:15:49;3.97;;;3.60;;
56102;SDS011;41970;48.774;9.280;2022-11-20T02:18:16;8.83;;;3.60;;
56102;SDS011;41970;48.774;9.280;2022-11-20T02:20:45;3.93;;;3.40;;
56102;SDS011;41970;48.774;9.280;2022-11-20T02:23:32;4.00;;;2.73;;
56102;SDS011;41970;48.774;9.280;2022-11-20T02:26:10;3.97;;;3.20;;
56102;SDS011;41970;48.774;9.280;2022-11-20T02:28:39;3.57;;;3.27;;
56102;SDS011;41970;48.774;9.280;2022-11-20T02:31:05;4.07;;;3.17;;
56102;SDS011;41970;48.774;9.280;2022-11-20T02:33:31;4.13;;;3.00;;
56102;SDS011;41970;48.774;9.280;2022-11-20T02:35:57;4.03;;;2.57;;
56102;SDS011;41970;48.774;9.280;2022-11-20T02:38:24;2.90;;;2.67;;
56102;SDS011;41970;48.774;9.280;2022-11-20T02:40:50;2.63;;;2.43;;
56102;SDS011;41970;48.774;9.280;2022-11-20T02:43:15;3.40;;;3.10;;
56102;SDS011;41970;48.774;9.280;2022-11-20T02:45:41;3.10;;;2.80;;
56102;SDS011;41970;48.774;9.280;2022-11-20T02:48:07;3.77;;;2.70;;
56102;SDS011;41970;48.774;9.280;2022-11-20T02:50:35;3.40;;;2.83;;
56102;SDS011;41970;48.774;9.280;2022-11-20T02:53:02;2.73;;;2.53;;
56102;SDS011;41970;48.774;9.280;2022-11-20T02:55:28;3.97;;;2.70;;
56102;SDS011;41970;48.774;9.280;2022-11-20T02:57:54;3.63;;;3.10;;
56102;SDS011;41970;48.774;9.280;2022-11-20T03:00:20;3.60;;;3.07;;
56102;SDS011;41970;48.774;9.280;2022-11-20T03:02:46;4.80;;;3.13;;
56102;SDS011;41970;48.774;9.280;2022-11-20T03:05:12;3.20;;;2.53;;
56102;SDS011;41970;48.774;9.280;2022-11-20T03:07:38;4.13;;;3.73;;
56102;SDS011;41970;48.774;9.280;2022-11-20T03:10:04;3.80;;;3.20;;
56102;SDS011;41970;48.774;9.280;2022-11-20T03:12:31;4.13;;;2.83;;
56102;SDS011;41970;48.774;9.280;2022-11-20T03:14:59;3.23;;;2.93;;
56102;SDS011;41970;48.774;9.280;2022-11-20T03:17:25;3.63;;;2.57;;
56102;SDS011;41970;48.774;9.280;2022-11-20T03:19:51;3.30;;;3.03;;
56102;SDS011;41970;48.774;9.280;2022-11-20T03:22:17;2.90;;;2.67;;
56102;SDS011;41970;48.774;9.280;2022-11-20T03:24:43;3.50;;;3.20;;
56102;SDS011;41970;48.774;9.280;2022-11-20T03:27:09;4.77;;;3.20;;
56102;SDS011;41970;48.774;9.280;2022-11-20T03:29:35;3.23;;;2.73;;
56102;SDS011;41970;48.774;9.280;2022-11-20T03:32:01;4.00;;;3.20;;
56102;SDS011;41970;48.774;9.280;2022-11-20T03:34:26;3.33;;;3.03;;
56102;SDS011;41970;48.774;9.280;2022-11-20T03:36:52;3.73;;;3.43;;
56102;SDS011;41970;48.774;9.280;2022-11-20T03:39:18;3.87;;;3.57;;
56102;SDS011;41970;48.774;9.280;2022-11-20T03:41:44;3.43;;;3.13;;
56102;SDS011;41970;48.774;9.280;2022-11-20T03:44:10;7.83;;;3.80;;
56102;SDS011;41970;48.774;9.280;2022-11-20T03:46:37;4.67;;;3.03;;
56102;SDS011;41970;48.774;9.280;2022-11-20T03:49:03;4.20;;;3.47;;
56102;SDS011;41970;48.774;9.280;2022-11-20T03:51:30;4.27;;;3.67;;
56102;SDS011;41970;48.774;9.280;2022-11-20T03:53:58;6.37;;;3.13;;
56102;SDS011;41970;48.774;9.280;2022-11-20T03:56:27;3.33;;;3.03;;
56102;SDS011;41970;48.774;9.280;2022-11-20T03:58:55;3.57;;;3.20;;
56102;SDS011;41970;48.774;9.280;2022-11-20T04:01:22;3.80;;;3.33;;
56102;SDS011;41970;48.774;9.280;2022-11-20T04:03:51;5.27;;;3.47;;
56102;SDS011;41970;48.774;9.280;2022-11-20T04:06:19;4.13;;;3.30;;
56102;SDS011;41970;48.774;9.280;2022-11-20T04:08:47;3.70;;;3.03;;
56102;SDS011;41970;48.774;9.280;2022-11-20T04:11:17;3.70;;;3.17;;
56102;SDS011;41970;48.774;9.280;2022-11-20T04:13:51;4.70;;;3.43;;
56102;SDS011;41970;48.774;9.280;2022-11-20T04:16:19;5.43;;;3.20;;
56102;SDS011;41970;48.774;9.280;2022-11-20T04:18:46;4.20;;;3.13;;
56102;SDS011;41970;48.774;9.280;2022-11-20T04:21:12;3.63;;;3.33;;
56102;SDS011;41970;48.774;9.280;2022-11-20T04:23:38;3.33;;;3.03;;
56102;SDS011;41970;48.774;9.280;2022-11-20T04:26:11;4.03;;;3.30;;
56102;SDS011;41970;48.774;9.280;2022-11-20T04:28:37;3.33;;;3.03;;
56102;SDS011;41970;48.774;9.280;2022-11-20T04:33:29;3.80;;;3.30;;
56102;SDS011;41970;48.774;9.280;2022-11-20T04:35:55;5.27;;;3.20;;
56102;SDS011;41970;48.774;9.280;2022-11-20T04:38:29;4.10;;;3.33;;
56102;SDS011;41970;48.774;9.280;2022-11-20T04:41:01;3.70;;;3.00;;
56102;SDS011;41970;48.774;9.280;2022-11-20T04:43:28;3.13;;;2.83;;
56102;SDS011;41970;48.774;9.280;2022-11-20T04:45:55;3.10;;;2.90;;
56102;SDS011;41970;48.774;9.280;2022-11-20T04:48:22;3.23;;;2.70;;
56102;SDS011;41970;48.774;9.280;2022-11-20T04:50:48;3.57;;;3.27;;
56102;SDS011;41970;48.774;9.280;2022-11-20T04:53:14;3.13;;;2.83;;
56102;SDS011;41970;48.774;9.280;2022-11-20T04:55:40;3.60;;;3.30;;
56102;SDS011;41970;48.774;9.280;2022-11-20T04:58:06;2.50;;;2.30;;
56102;SDS011;41970;48.774;9.280;2022-11-20T05:00:32;3.97;;;3.40;;
56102;SDS011;41970;48.774;9.280;2022-11-20T05:02:58;2.43;;;2.23;;
56102;SDS011;41970;48.774;9.280;2022-11-20T05:05:23;3.37;;;3.07;;
56102;SDS011;41970;48.774;9.280;2022-11-20T05:07:49;3.03;;;2.73;;
56102;SDS011;41970;48.774;9.280;2022-11-20T05:10:15;4.00;;;2.97;;
56102;SDS011;41970;48.774;9.280;2022-11-20T05:12:41;3.90;;;3.00;;
56102;SDS011;41970;48.774;9.280;2022-11-20T05:15:07;2.90;;;2.60;;
56102;SDS011;41970;48.774;9.280;2022-11-20T05:17:33;4.40;;;2.90;;
56102;SDS011;41970;48.774;9.280;2022-11-20T05:19:59;3.47;;;2.73;;
56102;SDS011;41970;48.774;9.280;2022-11-20T05:22:25;3.47;;;3.00;;
56102;SDS011;41970;48.774;9.280;2022-11-20T05:24:51;3.70;;;3.10;;
56102;SDS011;41970;48.774;9.280;2022-11-20T05:27:17;3.80;;;3.50;;
56102;SDS011;41970;48.774;9.280;2022-11-20T05:29:42;3.30;;;2.53;;
56102;SDS011;41970;48.774;9.280;2022-11-20T05:32:08;3.50;;;2.90;;
56102;SDS011;41970;48.774;9.280;2022-11-20T05:34:35;2.83;;;2.63;;
56102;SDS011;41970;48.774;9.280;2022-11-20T05:37:01;3.67;;;3.37;;
56102;SDS011;41970;48.774;9.280;2022-11-20T05:39:28;3.50;;;2.80;;
56102;SDS011;41970;48.774;9.280;2022-11-20T05:41:54;3.63;;;3.33;;
56102;SDS011;41970;48.774;9.280;2022-11-20T05:44:38;6.30;;;2.67;;
56102;SDS011;41970;48.774;9.280;2022-11-20T05:47:04;4.13;;;3.20;;
56102;SDS011;41970;48.774;9.280;2022-11-20T05:49:30;2.80;;;2.60;;
56102;SDS011;41970;48.774;9.280;2022-11-20T05:51:57;3.77;;;2.80;;
56102;SDS011;41970;48.774;9.280;2022-11-20T05:54:22;5.07;;;4.10;;
56102;SDS011;41970;48.774;9.280;2022-11-20T05:56:48;8.90;;;6.53;;
56102;SDS011;41970;48.774;9.280;2022-11-20T05:59:14;6.80;;;4.23;;
56102;SDS011;41970;48.774;9.280;2022-11-20T06:01:40;5.80;;;4.93;;
56102;SDS011;41970;48.774;9.280;2022-11-20T06:04:06;6.20;;;4.10;;
56102;SDS011;41970;48.774;9.280;2022-11-20T06:06:32;4.87;;;4.43;;
56102;SDS011;41970;48.774;9.280;2022-11-20T06:08:58;5.37;;;4.37;;
56102;SDS011;41970;48.774;9.280;2022-11-20T06:11:24;3.40;;;3.10;;
56102;SDS011;41970;48.774;9.280;2022-11-20T06:13:50;4.70;;;3.50;;
56102;SDS011;41970;48.774;9.280;2022-11-20T06:16:18;5.50;;;3.20;;
56102;SDS011;41970;48.774;9.280;2022-11-20T06:18:45;3.73;;;3.43;;
56102;SDS011;41970;48.774;9.280;2022-11-20T06:21:12;3.50;;;3.20;;
56102;SDS011;41970;48.774;9.280;2022-11-20T06:23:40;3.10;;;2.83;;
56102;SDS011;41970;48.774;9.280;2022-11-20T06:26:12;3.00;;;2.30;;
56102;SDS011;41970;48.774;9.280;2022-11-20T06:28:40;2.47;;;2.27;;
56102;SDS011;41970;48.774;9.280;2022-11-20T06:31:07;2.93;;;2.60;;
56102;SDS011;41970;48.774;9.280;2022-11-20T06:33:35;3.10;;;2.70;;
56102;SDS011;41970;48.774;9.280;2022-11-20T06:36:02;2.77;;;2.57;;
56102;SDS011;41970;48.774;9.280;2022-11-20T06:38:29;2.40;;;2.10;;
56102;SDS011;41970;48.774;9.280;2022-11-20T06:40:55;2.40;;;2.20;;
56102;SDS011;41970;48.774;9.280;2022-11-20T06:43:22;3.27;;;2.97;;
56102;SDS011;41970;48.774;9.280;2022-11-20T06:45:55;3.10;;;2.80;;
56102;SDS011;41970;48.774;9.280;2022-11-20T06:48:22;4.30;;;2.70;;
56102;SDS011;41970;48.774;9.280;2022-11-20T06:50:49;3.10;;;2.47;;
56102;SDS011;41970;48.774;9.280;2022-11-20T06:53:15;3.40;;;2.77;;
56102;SDS011;41970;48.774;9.280;2022-11-20T06:55:47;3.17;;;2.70;;
56102;SDS011;41970;48.774;9.280;2022-11-20T06:58:14;3.73;;;2.70;;
56102;SDS011;41970;48.774;9.280;2022-11-20T07:00:40;3.90;;;3.17;;
56102;SDS011;41970;48.774;9.280;2022-11-20T07:03:07;2.63;;;2.43;;
56102;SDS011;41970;48.774;9.280;2022-11-20T07:05:34;2.73;;;2.50;;
56102;SDS011;41970;48.774;9.280;2022-11-20T07:08:01;2.97;;;2.60;;
56102;SDS011;41970;48.774;9.280;2022-11-20T07:10:28;3.23;;;2.87;;
56102;SDS011;41970;48.774;9.280;2022-11-20T07:12:54;5.07;;;3.43;;
56102;SDS011;41970;48.774;9.280;2022-11-20T07:15:21;4.07;;;3.57;;
56102;SDS011;41970;48.774;9.280;2022-11-20T07:17:48;3.23;;;3.03;;
56102;SDS011;41970;48.774;9.280;2022-11-20T07:20:14;4.90;;;3.13;;
56102;SDS011;41970;48.774;9.280;2022-11-20T07:22:40;3.37;;;3.07;;
56102;SDS011;41970;48.774;9.280;2022-11-20T07:25:07;3.60;;;2.90;;
56102;SDS011;41970;48.774;9.280;2022-11-20T07:27:33;4.00;;;2.60;;
56102;SDS011;41970;48.774;9.280;2022-11-20T07:29:59;4.20;;;2.83;;
56102;SDS011;41970;48.774;9.280;2022-11-20T07:32:26;3.83;;;3.13;;
56102;SDS011;41970;48.774;9.280;2022-11-20T07:34:51;4.80;;;4.13;;
56102;SDS011;41970;48.774;9.280;2022-11-20T07:37:17;3.97;;;3.57;;
56102;SDS011;41970;48.774;9.280;2022-11-20T07:39:43;5.07;;;3.80;;
56102;SDS011;41970;48.774;9.280;2022-11-20T07:42:09;3.30;;;3.00;;
56102;SDS011;41970;48.774;9.280;2022-11-20T07:44:37;4.07;;;3.27;;
56102;SDS011;41970;48.774;9.280;2022-11-20T07:47:03;2.70;;;2.50;;
56102;SDS011;41970;48.774;9.280;2022-11-20T07:49:32;3.40;;;3.10;;
56102;SDS011;41970;48.774;9.280;2022-11-20T07:51:58;3.10;;;2.80;;
56102;SDS011;41970;48.774;9.280;2022-11-20T07:54:24;4.03;;;2.97;;
56102;SDS011;41970;48.774;9.280;2022-11-20T07:56:49;4.10;;;2.87;;
56102;SDS011;41970;48.774;9.280;2022-11-20T07:59:15;3.17;;;2.87;;
56102;SDS011;41970;48.774;9.280;2022-11-20T08:01:42;2.77;;;2.57;;
56102;SDS011;41970;48.774;9.280;2022-11-20T08:04:08;2.73;;;2.53;;
56102;SDS011;41970;48.774;9.280;2022-11-20T08:06:36;3.20;;;2.90;;
56102;SDS011;41970;48.774;9.280;2022-11-20T08:09:02;3.10;;;2.80;;
56102;SDS011;41970;48.774;9.280;2022-11-20T08:11:30;3.57;;;3.27;;
56102;SDS011;41970;48.774;9.280;2022-11-20T08:14:14;4.77;;;2.80;;
56102;SDS011;41970;48.774;9.280;2022-11-20T08:16:44;2.97;;;2.67;;
56102;SDS011;41970;48.774;9.280;2022-11-20T08:19:15;2.57;;;2.37;;
56102;SDS011;41970;48.774;9.280;2022-11-20T08:21:43;2.80;;;2.50;;
56102;SDS011;41970;48.774;9.280;2022-11-20T08:24:09;2.40;;;2.20;;
56102;SDS011;41970;48.774;9.280;2022-11-20T08:26:36;3.00;;;2.70;;
56102;SDS011;41970;48.774;9.280;2022-11-20T08:29:03;3.53;;;2.57;;
56102;SDS011;41970;48.774;9.280;2022-11-20T08:31:30;3.03;;;2.40;;
56102;SDS011;41970;48.774;9.280;2022-11-20T08:33:56;2.83;;;2.23;;
56102;SDS011;41970;48.774;9.280;2022-11-20T08:36:22;2.63;;;2.33;;
56102;SDS011;41970;48.774;9.280;2022-11-20T08:38:49;2.30;;;2.10;;
56102;SDS011;41970;48.774;9.280;2022-11-20T08:41:17;3.40;;;2.63;;
56102;SDS011;41970;48.774;9.280;2022-11-20T08:43:50;3.30;;;2.70;;
56102;SDS011;41970;48.774;9.280;2022-11-20T08:46:28;3.83;;;2.30;;
56102;SDS011;41970;48.774;9.280;2022-11-20T08:48:59;2.90;;;2.20;;
56102;SDS011;41970;48.774;9.280;2022-11-20T08:51:25;3.37;;;2.57;;
56102;SDS011;41970;48.774;9.280;2022-11-20T08:53:51;2.90;;;2.60;;
56102;SDS011;41970;48.774;9.280;2022-11-20T08:56:16;3.30;;;2.70;;
56102;SDS011;41970;48.774;9.280;2022-11-20T08:58:42;2.77;;;2.50;;
56102;SDS011;41970;48.774;9.280;2022-11-20T09:01:08;3.53;;;2.50;;
56102;SDS011;41970;48.774;9.280;2022-11-20T09:03:35;2.57;;;2.37;;
56102;SDS011;41970;48.774;9.280;2022-11-20T09:06:02;3.03;;;2.80;;
56102;SDS011;41970;48.774;9.280;2022-11-20T09:08:30;3.00;;;2.17;;
56102;SDS011;41970;48.774;9.280;2022-11-20T09:10:56;4.10;;;2.20;;
56102;SDS011;41970;48.774;9.280;2022-11-20T09:13:23;2.37;;;2.17;;
56102;SDS011;41970;48.774;9.280;2022-11-20T09:15:57;3.20;;;2.00;;
56102;SDS011;41970;48.774;9.280;2022-11-20T09:18:25;2.10;;;1.80;;
56102;SDS011;41970;48.774;9.280;2022-11-20T09:20:55;2.90;;;1.87;;
56102;SDS011;41970;48.774;9.280;2022-11-20T09:23:22;2.50;;;2.13;;
56102;SDS011;41970;48.774;9.280;2022-11-20T09:25:49;2.37;;;2.17;;
56102;SDS011;41970;48.774;9.280;2022-11-20T09:28:15;2.70;;;1.47;;
56102;SDS011;41970;48.774;9.280;2022-11-20T09:30:42;2.03;;;1.83;;
56102;SDS011;41970;48.774;9.280;2022-11-20T09:33:08;2.27;;;1.83;;
56102;SDS011;41970;48.774;9.280;2022-11-20T09:35:34;1.90;;;1.60;;
56102;SDS011;41970;48.774;9.280;2022-11-20T09:38:04;1.63;;;1.40;;
56102;SDS011;41970;48.774;9.280;2022-11-20T09:40:34;3.73;;;1.90;;
56102;SDS011;41970;48.774;9.280;2022-11-20T09:43:21;3.63;;;1.43;;
56102;SDS011;41970;48.774;9.280;2022-11-20T09:51:46;3.53;;;1.90;;
56102;SDS011;41970;48.774;9.280;2022-11-20T09:54:19;1.70;;;1.50;;
56102;SDS011;41970;48.774;9.280;2022-11-20T09:56:56;1.43;;;1.10;;
56102;SDS011;41970;48.774;9.280;2022-11-20T10:04:52;1.10;;;0.97;;
56102;SDS011;41970;48.774;9.280;2022-11-20T10:07:36;2.40;;;1.40;;
56102;SDS011;41970;48.774;9.280;2022-11-20T10:10:19;2.10;;;1.40;;
56102;SDS011;41970;48.774;9.280;2022-11-20T10:13:14;1.37;;;1.27;;
56102;SDS011;41970;48.774;9.280;2022-11-20T10:18:44;3.17;;;1.27;;
56102;SDS011;41970;48.774;9.280;2022-11-20T10:24:13;1.30;;;1.20;;
56102;SDS011;41970;48.774;9.280;2022-11-20T10:29:29;1.77;;;1.20;;
56102;SDS011;41970;48.774;9.280;2022-11-20T10:32:10;1.60;;;1.10;;
56102;SDS011;41970;48.774;9.280;2022-11-20T10:37:25;1.07;;;0.97;;
56102;SDS011;41970;48.774;9.280;2022-11-20T10:42:48;2.20;;;1.50;;
56102;SDS011;41970;48.774;9.280;2022-11-20T10:45:31;2.00;;;1.30;;
56102;SDS011;41970;48.774;9.280;2022-11-20T10:50:46;2.23;;;1.10;;
56102;SDS011;41970;48.774;9.280;2022-11-20T10:58:52;2.07;;;1.33;;
56102;SDS011;41970;48.774;9.280;2022-11-20T11:01:25;2.50;;;1.47;;
56102;SDS011;41970;48.774;9.280;2022-11-20T11:03:52;1.90;;;1.40;;
56102;SDS011;41970;48.774;9.280;2022-11-20T11:06:36;2.27;;;1.60;;
56102;SDS011;41970;48.774;9.280;2022-11-20T11:09:12;1.50;;;1.40;;
56102;SDS011;41970;48.774;9.280;2022-11-20T11:12:00;3.70;;;1.37;;
56102;SDS011;41970;48.774;9.280;2022-11-20T11:14:26;1.37;;;1.23;;
56102;SDS011;41970;48.774;9.280;2022-11-20T11:16:56;1.50;;;1.20;;
56102;SDS011;41970;48.774;9.280;2022-11-20T11:19:23;1.23;;;1.07;;
56102;SDS011;41970;48.774;9.280;2022-11-20T11:21:56;1.40;;;1.30;;
56102;SDS011;41970;48.774;9.280;2022-11-20T11:24:26;1.33;;;1.23;;
56102;SDS011;41970;48.774;9.280;2022-11-20T11:26:57;1.83;;;1.57;;
56102;SDS011;41970;48.774;9.280;2022-11-20T11:29:29;2.10;;;1.30;;
56102;SDS011;41970;48.774;9.280;2022-11-20T11:32:03;2.50;;;1.30;;
56102;SDS011;41970;48.774;9.280;2022-11-20T11:34:30;1.60;;;1.40;;
56102;SDS011;41970;48.774;9.280;2022-11-20T11:36:57;1.90;;;1.50;;
56102;SDS011;41970;48.774;9.280;2022-11-20T11:39:24;2.07;;;1.60;;
56102;SDS011;41970;48.774;9.280;2022-11-20T11:41:52;1.50;;;1.10;;
56102;SDS011;41970;48.774;9.280;2022-11-20T11:44:19;1.90;;;1.57;;
56102;SDS011;41970;48.774;9.280;2022-11-20T11:47:09;2.33;;;1.80;;
56102;SDS011;41970;48.774;9.280;2022-11-20T11:49:40;2.87;;;2.57;;
56102;SDS011;41970;48.774;9.280;2022-11-20T11:52:18;1.80;;;1.63;;
56102;SDS011;41970;48.774;9.280;2022-11-20T12:00:14;2.33;;;2.10;;
56102;SDS011;41970;48.774;9.280;2022-11-20T12:05:18;2.93;;;2.20;;
56102;SDS011;41970;48.774;9.280;2022-11-20T12:13:30;6.77;;;1.57;;
56102;SDS011;41970;48.774;9.280;2022-11-20T12:16:00;2.50;;;1.57;;
56102;SDS011;41970;48.774;9.280;2022-11-20T12:18:27;1.67;;;1.40;;
56102;SDS011;41970;48.774;9.280;2022-11-20T12:20:58;2.90;;;1.70;;
56102;SDS011;41970;48.774;9.280;2022-11-20T12:26:22;3.23;;;1.70;;
56102;SDS011;41970;48.774;9.280;2022-11-20T12:29:07;1.53;;;1.43;;
56102;SDS011;41970;48.774;9.280;2022-11-20T12:34:52;2.00;;;1.70;;
56102;SDS011;41970;48.774;9.280;2022-11-20T12:37:46;1.77;;;1.60;;
56102;SDS011;41970;48.774;9.280;2022-11-20T12:42:57;3.53;;;3.07;;
56102;SDS011;41970;48.774;9.280;2022-11-20T12:52:11;1.30;;;1.20;;
56102;SDS011;41970;48.774;9.280;2022-11-20T12:55:03;2.07;;;1.30;;
56102;SDS011;41970;48.774;9.280;2022-11-20T12:57:53;2.37;;;1.50;;
56102;SDS011;41970;48.774;9.280;2022-11-20T13:00:28;2.07;;;1.77;;
56102;SDS011;41970;48.774;9.280;2022-11-20T13:06:14;1.30;;;1.20;;
56102;SDS011;41970;48.774;9.280;2022-11-20T13:08:44;4.10;;;1.40;;
56102;SDS011;41970;48.774;9.280;2022-11-20T13:11:24;3.50;;;2.00;;
56102;SDS011;41970;48.774;9.280;2022-11-20T13:17:11;2.00;;;1.83;;
56102;SDS011;41970;48.774;9.280;2022-11-20T13:19:49;1.17;;;1.07;;
56102;SDS011;41970;48.774;9.280;2022-11-20T13:22:42;2.20;;;1.57;;
56102;SDS011;41970;48.774;9.280;2022-11-20T13:25:09;2.07;;;1.20;;
56102;SDS011;41970;48.774;9.280;2022-11-20T13:27:35;1.50;;;1.27;;
56102;SDS011;41970;48.774;9.280;2022-11-20T13:30:13;2.27;;;1.27;;
56102;SDS011;41970;48.774;9.280;2022-11-20T13:32:49;2.90;;;1.97;;
56102;SDS011;41970;48.774;9.280;2022-11-20T13:35:24;2.33;;;1.10;;
56102;SDS011;41970;48.774;9.280;2022-11-20T13:38:00;1.70;;;1.07;;
56102;SDS011;41970;48.774;9.280;2022-11-20T13:40:26;6.07;;;1.60;;
56102;SDS011;41970;48.774;9.280;2022-11-20T13:45:53;1.70;;;1.30;;
56102;SDS011;41970;48.774;9.280;2022-11-20T13:48:25;4.20;;;1.03;;
56102;SDS011;41970;48.774;9.280;2022-11-20T13:51:02;4.20;;;0.97;;
56102;SDS011;41970;48.774;9.280;2022-11-20T14:01:54;1.47;;;1.37;;
56102;SDS011;41970;48.774;9.280;2022-11-20T14:04:30;3.23;;;1.50;;
56102;SDS011;41970;48.774;9.280;2022-11-20T14:07:05;2.50;;;1.27;;
56102;SDS011;41970;48.774;9.280;2022-11-20T14:09:32;2.77;;;1.30;;
56102;SDS011;41970;48.774;9.280;2022-11-20T14:11:59;2.80;;;1.30;;
56102;SDS011;41970;48.774;9.280;2022-11-20T14:14:26;1.43;;;1.20;;
56102;SDS011;41970;48.774;9.280;2022-11-20T14:20:04;4.70;;;1.70;;
56102;SDS011;41970;48.774;9.280;2022-11-20T14:22:32;2.37;;;1.30;;
56102;SDS011;41970;48.774;9.280;2022-11-20T14:27:43;2.23;;;1.30;;
56102;SDS011;41970;48.774;9.280;2022-11-20T14:30:21;1.60;;;1.50;;
56102;SDS011;41970;48.774;9.280;2022-11-20T14:32:49;3.20;;;1.37;;
56102;SDS011;41970;48.774;9.280;2022-11-20T14:35:25;2.90;;;1.30;;
56102;SDS011;41970;48.774;9.280;2022-11-20T14:37:52;1.90;;;1.60;;
56102;SDS011;41970;48.774;9.280;2022-11-20T14:42:54;1.70;;;1.40;;
56102;SDS011;41970;48.774;9.280;2022-11-20T14:45:21;1.50;;;1.40;;
56102;SDS011;41970;48.774;9.280;2022-11-20T14:47:48;2.33;;;1.53;;
56102;SDS011;41970;48.774;9.280;2022-11-20T14:50:18;2.90;;;1.40;;
56102;SDS011;41970;48.774;9.280;2022-11-20T14:52:55;3.20;;;1.60;;
56102;SDS011;41970;48.774;9.280;2022-11-20T14:55:27;2.60;;;1.50;;
56102;SDS011;41970;48.774;9.280;2022-11-20T14:58:03;2.17;;;1.50;;
56102;SDS011;41970;48.774;9.280;2022-11-20T15:00:53;1.83;;;1.10;;
56102;SDS011;41970;48.774;9.280;2022-11-20T15:03:21;2.73;;;1.70;;
56102;SDS011;41970;48.774;9.280;2022-11-20T15:05:48;1.67;;;1.50;;
56102;SDS011;41970;48.774;9.280;2022-11-20T15:08:15;1.90;;;1.70;;
56102;SDS011;41970;48.774;9.280;2022-11-20T15:10:45;2.07;;;1.77;;
56102;SDS011;41970;48.774;9.280;2022-11-20T15:16:17;3.50;;;2.70;;
56102;SDS011;41970;48.774;9.280;2022-11-20T15:18:45;7.17;;;4.40;;
56102;SDS011;41970;48.774;9.280;2022-11-20T15:21:13;5.23;;;3.80;;
56102;SDS011;41970;48.774;9.280;2022-11-20T15:23:41;7.60;;;4.07;;
56102;SDS011;41970;48.774;9.280;2022-11-20T15:26:08;2.63;;;2.40;;
56102;SDS011;41970;48.774;9.280;2022-11-20T15:28:36;3.97;;;2.70;;
56102;SDS011;41970;48.774;9.280;2022-11-20T15:31:05;4.97;;;3.40;;
56102;SDS011;41970;48.774;9.280;2022-11-20T15:33:32;3.30;;;3.00;;
56102;SDS011;41970;48.774;9.280;2022-11-20T15:35:58;3.77;;;2.17;;
56102;SDS011;41970;48.774;9.280;2022-11-20T15:38:25;3.50;;;1.77;;
56102;SDS011;41970;48.774;9.280;2022-11-20T15:40:51;3.53;;;2.10;;
56102;SDS011;41970;48.774;9.280;2022-11-20T15:43:16;3.23;;;2.10;;
56102;SDS011;41970;48.774;9.280;2022-11-20T15:45:43;5.07;;;2.70;;
56102;SDS011;41970;48.774;9.280;2022-11-20T15:48:21;5.63;;;3.20;;
56102;SDS011;41970;48.774;9.280;2022-11-20T15:50:52;4.43;;;2.93;;
56102;SDS011;41970;48.774;9.280;2022-11-20T15:53:26;2.30;;;2.10;;
56102;SDS011;41970;48.774;9.280;2022-11-20T15:55:52;6.87;;;4.10;;
56102;SDS011;41970;48.774;9.280;2022-11-20T15:58:18;3.87;;;2.07;;
56102;SDS011;41970;48.774;9.280;2022-11-20T16:00:44;2.20;;;1.80;;
56102;SDS011;41970;48.774;9.280;2022-11-20T16:03:11;2.73;;;1.80;;
56102;SDS011;41970;48.774;9.280;2022-11-20T16:05:38;1.90;;;1.63;;
56102;SDS011;41970;48.774;9.280;2022-11-20T16:08:04;2.40;;;2.10;;
56102;SDS011;41970;48.774;9.280;2022-11-20T16:10:30;2.83;;;1.90;;
56102;SDS011;41970;48.774;9.280;2022-11-20T16:12:56;3.07;;;2.73;;
56102;SDS011;41970;48.774;9.280;2022-11-20T16:15:40;2.30;;;2.00;;
56102;SDS011;41970;48.774;9.280;2022-11-20T16:18:13;2.93;;;2.50;;
56102;SDS011;41970;48.774;9.280;2022-11-20T16:20:41;2.97;;;2.67;;
56102;SDS011;41970;48.774;9.280;2022-11-20T16:23:07;3.10;;;2.20;;
56102;SDS011;41970;48.774;9.280;2022-11-20T16:25:34;4.73;;;4.03;;
56102;SDS011;41970;48.774;9.280;2022-11-20T16:27:59;5.50;;;5.00;;
56102;SDS011;41970;48.774;9.280;2022-11-20T16:30:25;3.33;;;2.50;;
56102;SDS011;41970;48.774;9.280;2022-11-20T16:32:52;3.30;;;2.80;;
56102;SDS011;41970;48.774;9.280;2022-11-20T16:35:18;3.50;;;2.60;;
56102;SDS011;41970;48.774;9.280;2022-11-20T16:37:44;3.17;;;2.80;;